EWG7V EDDC-EDDL
Flight info
| Callsign | EWG7V |
|---|---|
| Flight time | 0h 59m |
| Altitude | 28000 |
| Route | BEBEX7W BEBEX Q230 WRB T854 DOMUX DOMUX1A |
| Aircraft | A320/M-SDE3FGHIRWY/LB1 |
Departure
| Time | 2026-05-06 12:54 |
|---|---|
| Airport | Dresden Airport (EDDC) |
Arrival
| Time | 2026-05-06 13:54 |
|---|---|
| Airport | Düsseldorf Airport (EDDL) |
| Time | Latitude | Longitude | Altitude | Speed | Heading |
|---|---|---|---|---|---|
| 2026-05-06 12:22 | 51.12591 | 13.76599 | 751 ft | 0 kts | 221° |
| 2026-05-06 12:43 | 51.12604 | 13.76617 | 752 ft | 4 kts | 221° |
| 2026-05-06 12:44 | 51.12621 | 13.76639 | 751 ft | 3 kts | 221° |
| 2026-05-06 12:44 | 51.12634 | 13.76670 | 750 ft | 4 kts | 270° |
| 2026-05-06 12:44 | 51.12627 | 13.76703 | 748 ft | 4 kts | 310° |
| 2026-05-06 12:44 | 51.12615 | 13.76724 | 752 ft | 0 kts | 310° |
| 2026-05-06 12:47 | 51.12616 | 13.76722 | 752 ft | 2 kts | 310° |
| 2026-05-06 12:47 | 51.12646 | 13.76668 | 750 ft | 12 kts | 310° |
| 2026-05-06 12:48 | 51.12720 | 13.76531 | 750 ft | 18 kts | 310° |
| 2026-05-06 12:48 | 51.12791 | 13.76421 | 753 ft | 13 kts | 346° |
| 2026-05-06 12:48 | 51.12866 | 13.76496 | 752 ft | 13 kts | 40° |
| 2026-05-06 12:48 | 51.12931 | 13.76585 | 749 ft | 12 kts | 40° |
| 2026-05-06 12:49 | 51.12992 | 13.76668 | 749 ft | 11 kts | 40° |
| 2026-05-06 12:49 | 51.13058 | 13.76758 | 747 ft | 15 kts | 40° |
| 2026-05-06 12:49 | 51.13137 | 13.76869 | 748 ft | 15 kts | 41° |
| 2026-05-06 12:49 | 51.13219 | 13.76983 | 743 ft | 15 kts | 40° |
| 2026-05-06 12:50 | 51.13299 | 13.77092 | 743 ft | 16 kts | 40° |
| 2026-05-06 12:50 | 51.13401 | 13.77231 | 735 ft | 25 kts | 41° |
| 2026-05-06 12:50 | 51.13548 | 13.77434 | 725 ft | 28 kts | 40° |
| 2026-05-06 12:50 | 51.13673 | 13.77606 | 716 ft | 20 kts | 41° |
| 2026-05-06 12:51 | 51.13784 | 13.77763 | 716 ft | 23 kts | 40° |
| 2026-05-06 12:51 | 51.13905 | 13.77927 | 714 ft | 23 kts | 40° |
| 2026-05-06 12:51 | 51.14030 | 13.78095 | 717 ft | 22 kts | 40° |
| 2026-05-06 12:51 | 51.14150 | 13.78264 | 714 ft | 22 kts | 41° |
| 2026-05-06 12:52 | 51.14203 | 13.78339 | 703 ft | 9 kts | 41° |
| 2026-05-06 12:52 | 51.14255 | 13.78361 | 708 ft | 7 kts | 345° |
| 2026-05-06 12:52 | 51.14292 | 13.78313 | 702 ft | 7 kts | 314° |
| 2026-05-06 12:52 | 51.14335 | 13.78234 | 698 ft | 13 kts | 310° |
| 2026-05-06 12:53 | 51.14378 | 13.78143 | 701 ft | 10 kts | 287° |
| 2026-05-06 12:53 | 51.14351 | 13.78061 | 704 ft | 0 kts | 224° |
| 2026-05-06 12:53 | 51.14350 | 13.78059 | 704 ft | 2 kts | 224° |
| 2026-05-06 12:54 | 51.14190 | 13.77824 | 715 ft | 68 kts | 220° |
| 2026-05-06 12:54 | 51.13663 | 13.77102 | 731 ft | 129 kts | 220° |
| 2026-05-06 12:54 | 51.12880 | 13.75988 | 903 ft | 162 kts | 224° |
| 2026-05-06 12:54 | 51.12046 | 13.74825 | 1681 ft | 159 kts | 225° |
| 2026-05-06 12:55 | 51.11213 | 13.73624 | 2275 ft | 168 kts | 226° |
| 2026-05-06 12:55 | 51.10291 | 13.72281 | 2598 ft | 191 kts | 225° |
| 2026-05-06 12:55 | 51.09238 | 13.70764 | 2959 ft | 216 kts | 225° |
| 2026-05-06 12:55 | 51.08056 | 13.69079 | 3407 ft | 240 kts | 224° |
| 2026-05-06 12:56 | 51.06788 | 13.67292 | 4136 ft | 251 kts | 223° |
| 2026-05-06 12:56 | 51.05464 | 13.65444 | 5039 ft | 255 kts | 222° |
| 2026-05-06 12:56 | 51.04295 | 13.63337 | 5947 ft | 258 kts | 244° |
| 2026-05-06 12:56 | 51.03989 | 13.60529 | 6793 ft | 265 kts | 272° |
| 2026-05-06 12:57 | 51.04379 | 13.57652 | 7677 ft | 272 kts | 291° |
| 2026-05-06 12:57 | 51.05506 | 13.55172 | 8518 ft | 283 kts | 312° |
| 2026-05-06 12:57 | 51.07099 | 13.53260 | 9400 ft | 290 kts | 322° |
| 2026-05-06 12:57 | 51.08777 | 13.51428 | 10107 ft | 299 kts | 320° |
| 2026-05-06 12:58 | 51.10514 | 13.49394 | 10383 ft | 322 kts | 319° |
| 2026-05-06 12:58 | 51.12340 | 13.47180 | 10876 ft | 335 kts | 318° |
| 2026-05-06 12:58 | 51.14203 | 13.44908 | 11594 ft | 340 kts | 319° |
| 2026-05-06 12:58 | 51.16075 | 13.42636 | 12336 ft | 345 kts | 319° |
| 2026-05-06 12:59 | 51.18000 | 13.40317 | 13090 ft | 349 kts | 319° |
| 2026-05-06 12:59 | 51.19953 | 13.37975 | 13778 ft | 354 kts | 319° |
| 2026-05-06 12:59 | 51.21932 | 13.35606 | 14421 ft | 358 kts | 319° |
| 2026-05-06 12:59 | 51.23929 | 13.33212 | 15080 ft | 361 kts | 319° |
| 2026-05-06 13:00 | 51.25942 | 13.30795 | 15731 ft | 364 kts | 319° |
| 2026-05-06 13:00 | 51.27973 | 13.28351 | 16387 ft | 367 kts | 318° |
| 2026-05-06 13:00 | 51.30021 | 13.25882 | 17048 ft | 370 kts | 318° |
| 2026-05-06 13:00 | 51.32069 | 13.23351 | 17718 ft | 371 kts | 314° |
| 2026-05-06 13:01 | 51.33830 | 13.20372 | 18303 ft | 368 kts | 302° |
| 2026-05-06 13:01 | 51.35183 | 13.16925 | 18853 ft | 365 kts | 291° |
| 2026-05-06 13:01 | 51.36078 | 13.13202 | 19418 ft | 363 kts | 281° |
| 2026-05-06 13:01 | 51.36592 | 13.09264 | 19996 ft | 362 kts | 277° |
| 2026-05-06 13:02 | 51.37061 | 13.05294 | 20556 ft | 364 kts | 277° |
| 2026-05-06 13:02 | 51.37537 | 13.01294 | 21131 ft | 367 kts | 277° |
| 2026-05-06 13:02 | 51.38017 | 12.97272 | 21650 ft | 369 kts | 277° |
| 2026-05-06 13:02 | 51.38499 | 12.93218 | 22188 ft | 372 kts | 277° |
| 2026-05-06 13:03 | 51.38983 | 12.89136 | 22715 ft | 374 kts | 277° |
| 2026-05-06 13:03 | 51.39469 | 12.85032 | 23238 ft | 376 kts | 277° |
| 2026-05-06 13:03 | 51.39958 | 12.80907 | 23685 ft | 378 kts | 277° |
| 2026-05-06 13:03 | 51.40448 | 12.76752 | 24116 ft | 380 kts | 277° |
| 2026-05-06 13:04 | 51.40938 | 12.72581 | 24535 ft | 382 kts | 276° |
| 2026-05-06 13:04 | 51.41422 | 12.68447 | 24965 ft | 384 kts | 276° |
| 2026-05-06 13:04 | 51.41910 | 12.64238 | 25397 ft | 385 kts | 276° |
| 2026-05-06 13:04 | 51.42397 | 12.60007 | 25817 ft | 387 kts | 275° |
| 2026-05-06 13:05 | 51.42886 | 12.55758 | 26239 ft | 388 kts | 274° |
| 2026-05-06 13:05 | 51.43162 | 12.51466 | 26624 ft | 388 kts | 269° |
| 2026-05-06 13:05 | 51.43356 | 12.47136 | 26986 ft | 391 kts | 269° |
| 2026-05-06 13:05 | 51.43546 | 12.42780 | 27372 ft | 393 kts | 269° |
| 2026-05-06 13:06 | 51.43734 | 12.38405 | 27710 ft | 395 kts | 269° |
| 2026-05-06 13:06 | 51.43924 | 12.34046 | 27778 ft | 385 kts | 269° |
| 2026-05-06 13:06 | 51.44111 | 12.29847 | 27782 ft | 373 kts | 269° |
| 2026-05-06 13:06 | 51.44290 | 12.25721 | 27783 ft | 370 kts | 268° |
| 2026-05-06 13:07 | 51.44458 | 12.21671 | 27778 ft | 368 kts | 268° |
| 2026-05-06 13:07 | 51.44625 | 12.17579 | 27769 ft | 368 kts | 268° |
| 2026-05-06 13:07 | 51.44791 | 12.13483 | 27769 ft | 368 kts | 268° |
| 2026-05-06 13:07 | 51.44958 | 12.09393 | 27770 ft | 368 kts | 268° |
| 2026-05-06 13:08 | 51.45125 | 12.05298 | 27786 ft | 369 kts | 268° |
| 2026-05-06 13:08 | 51.45291 | 12.01196 | 27772 ft | 370 kts | 268° |
| 2026-05-06 13:08 | 51.45455 | 11.97074 | 27775 ft | 371 kts | 268° |
| 2026-05-06 13:08 | 51.45618 | 11.92948 | 27775 ft | 371 kts | 268° |
| 2026-05-06 13:09 | 51.45779 | 11.88819 | 27770 ft | 371 kts | 268° |
| 2026-05-06 13:09 | 51.45939 | 11.84697 | 27770 ft | 371 kts | 268° |
| 2026-05-06 13:09 | 51.46099 | 11.80569 | 27769 ft | 371 kts | 268° |
| 2026-05-06 13:09 | 51.46260 | 11.76446 | 27770 ft | 371 kts | 268° |
| 2026-05-06 13:10 | 51.46415 | 11.72419 | 27769 ft | 371 kts | 268° |
| 2026-05-06 13:10 | 51.46572 | 11.68299 | 27770 ft | 371 kts | 268° |
| 2026-05-06 13:10 | 51.46724 | 11.64227 | 27769 ft | 371 kts | 268° |
| 2026-05-06 13:10 | 51.46879 | 11.60104 | 27759 ft | 370 kts | 268° |
| 2026-05-06 13:11 | 51.47031 | 11.55978 | 27772 ft | 370 kts | 268° |
| 2026-05-06 13:11 | 51.47180 | 11.51856 | 27765 ft | 371 kts | 268° |
| 2026-05-06 13:11 | 51.47327 | 11.47726 | 27761 ft | 371 kts | 268° |
| 2026-05-06 13:11 | 51.47473 | 11.43592 | 27759 ft | 371 kts | 268° |
| 2026-05-06 13:12 | 51.47620 | 11.39452 | 27762 ft | 372 kts | 268° |
| 2026-05-06 13:12 | 51.47764 | 11.35316 | 27761 ft | 372 kts | 268° |
| 2026-05-06 13:12 | 51.47908 | 11.31194 | 27759 ft | 372 kts | 268° |
| 2026-05-06 13:12 | 51.48052 | 11.27040 | 27761 ft | 372 kts | 268° |
| 2026-05-06 13:13 | 51.48191 | 11.22954 | 27759 ft | 372 kts | 268° |
| 2026-05-06 13:13 | 51.48329 | 11.18813 | 27761 ft | 372 kts | 268° |
| 2026-05-06 13:13 | 51.48463 | 11.14668 | 27763 ft | 372 kts | 268° |
| 2026-05-06 13:13 | 51.48596 | 11.10529 | 27789 ft | 372 kts | 268° |
| 2026-05-06 13:14 | 51.48857 | 11.06404 | 27768 ft | 373 kts | 276° |
| 2026-05-06 13:14 | 51.49333 | 11.02332 | 27751 ft | 370 kts | 276° |
| 2026-05-06 13:14 | 51.49805 | 10.98267 | 27747 ft | 371 kts | 276° |
| 2026-05-06 13:14 | 51.50275 | 10.94186 | 27741 ft | 373 kts | 276° |
| 2026-05-06 13:15 | 51.50745 | 10.90089 | 27750 ft | 374 kts | 276° |
| 2026-05-06 13:15 | 51.51212 | 10.85985 | 27748 ft | 374 kts | 276° |
| 2026-05-06 13:15 | 51.51679 | 10.81873 | 27755 ft | 375 kts | 276° |
| 2026-05-06 13:15 | 51.52140 | 10.77811 | 27757 ft | 375 kts | 276° |
| 2026-05-06 13:16 | 51.52606 | 10.73689 | 27751 ft | 375 kts | 276° |
| 2026-05-06 13:16 | 51.53071 | 10.69561 | 27752 ft | 376 kts | 276° |
| 2026-05-06 13:16 | 51.53534 | 10.65435 | 27755 ft | 375 kts | 275° |
| 2026-05-06 13:16 | 51.53730 | 10.61287 | 27780 ft | 371 kts | 265° |
| 2026-05-06 13:17 | 51.53661 | 10.57147 | 27767 ft | 371 kts | 264° |
| 2026-05-06 13:17 | 51.53594 | 10.52993 | 27761 ft | 372 kts | 264° |
| 2026-05-06 13:17 | 51.53528 | 10.48893 | 27757 ft | 373 kts | 264° |
| 2026-05-06 13:17 | 51.53461 | 10.44733 | 27757 ft | 373 kts | 264° |
| 2026-05-06 13:18 | 51.53395 | 10.40566 | 27752 ft | 373 kts | 264° |
| 2026-05-06 13:18 | 51.53329 | 10.36404 | 27751 ft | 374 kts | 264° |
| 2026-05-06 13:18 | 51.53261 | 10.32223 | 27752 ft | 374 kts | 264° |
| 2026-05-06 13:18 | 51.53192 | 10.28051 | 27752 ft | 374 kts | 264° |
| 2026-05-06 13:19 | 51.53119 | 10.23875 | 27750 ft | 374 kts | 264° |
| 2026-05-06 13:19 | 51.53043 | 10.19703 | 27752 ft | 374 kts | 264° |
| 2026-05-06 13:19 | 51.52966 | 10.15520 | 27751 ft | 374 kts | 264° |
| 2026-05-06 13:19 | 51.52888 | 10.11342 | 27774 ft | 375 kts | 265° |
| 2026-05-06 13:20 | 51.52808 | 10.07157 | 27759 ft | 376 kts | 265° |
| 2026-05-06 13:20 | 51.52726 | 10.02964 | 27754 ft | 376 kts | 265° |
| 2026-05-06 13:20 | 51.52644 | 9.98815 | 27752 ft | 377 kts | 265° |
| 2026-05-06 13:20 | 51.52559 | 9.94603 | 27754 ft | 378 kts | 265° |
| 2026-05-06 13:21 | 51.52474 | 9.90381 | 27756 ft | 378 kts | 265° |
| 2026-05-06 13:21 | 51.52389 | 9.86153 | 27760 ft | 379 kts | 265° |
| 2026-05-06 13:21 | 51.52300 | 9.81923 | 27760 ft | 379 kts | 265° |
| 2026-05-06 13:21 | 51.52207 | 9.77699 | 27763 ft | 379 kts | 265° |
| 2026-05-06 13:22 | 51.52118 | 9.73474 | 27760 ft | 379 kts | 265° |
| 2026-05-06 13:22 | 51.52028 | 9.69244 | 27761 ft | 379 kts | 265° |
| 2026-05-06 13:22 | 51.51968 | 9.66447 | 27762 ft | 379 kts | 265° |
| 2026-05-06 13:22 | 51.51874 | 9.62222 | 27763 ft | 379 kts | 266° |
| 2026-05-06 13:23 | 51.51743 | 9.56594 | 27748 ft | 382 kts | 266° |
| 2026-05-06 13:23 | 51.51640 | 9.52317 | 27745 ft | 384 kts | 266° |
| 2026-05-06 13:23 | 51.51531 | 9.48026 | 27747 ft | 385 kts | 266° |
| 2026-05-06 13:23 | 51.51423 | 9.43725 | 27749 ft | 387 kts | 266° |
| 2026-05-06 13:24 | 51.51317 | 9.39402 | 27753 ft | 388 kts | 266° |
| 2026-05-06 13:24 | 51.51245 | 9.36485 | 27743 ft | 388 kts | 266° |
| 2026-05-06 13:24 | 51.51130 | 9.32212 | 27744 ft | 389 kts | 266° |
| 2026-05-06 13:24 | 51.50978 | 9.27885 | 27749 ft | 389 kts | 265° |
| 2026-05-06 13:25 | 51.50796 | 9.23550 | 27749 ft | 389 kts | 264° |
| 2026-05-06 13:25 | 51.50595 | 9.19218 | 27751 ft | 389 kts | 264° |
| 2026-05-06 13:25 | 51.50384 | 9.14885 | 27755 ft | 389 kts | 264° |
| 2026-05-06 13:25 | 51.50176 | 9.10552 | 27760 ft | 389 kts | 264° |
| 2026-05-06 13:26 | 51.49973 | 9.06219 | 27772 ft | 390 kts | 264° |
| 2026-05-06 13:26 | 51.49773 | 9.01884 | 27775 ft | 390 kts | 264° |
| 2026-05-06 13:26 | 51.49573 | 8.97544 | 27778 ft | 390 kts | 264° |
| 2026-05-06 13:26 | 51.49373 | 8.93217 | 27780 ft | 389 kts | 264° |
| 2026-05-06 13:27 | 51.49172 | 8.88879 | 27781 ft | 389 kts | 264° |
| 2026-05-06 13:27 | 51.48966 | 8.84546 | 27789 ft | 390 kts | 264° |
| 2026-05-06 13:27 | 51.48761 | 8.80274 | 27794 ft | 390 kts | 264° |
| 2026-05-06 13:27 | 51.48546 | 8.75882 | 27807 ft | 401 kts | 264° |
| 2026-05-06 13:28 | 51.48321 | 8.71359 | 27799 ft | 410 kts | 264° |
| 2026-05-06 13:28 | 51.48093 | 8.66795 | 27814 ft | 410 kts | 264° |
| 2026-05-06 13:28 | 51.47865 | 8.62210 | 27807 ft | 415 kts | 264° |
| 2026-05-06 13:28 | 51.47635 | 8.57577 | 27808 ft | 418 kts | 264° |
| 2026-05-06 13:29 | 51.47404 | 8.52923 | 27807 ft | 419 kts | 264° |
| 2026-05-06 13:29 | 51.47172 | 8.48269 | 27806 ft | 420 kts | 264° |
| 2026-05-06 13:29 | 51.46936 | 8.43600 | 27803 ft | 419 kts | 264° |
| 2026-05-06 13:29 | 51.46704 | 8.39001 | 27803 ft | 418 kts | 264° |
| 2026-05-06 13:30 | 51.46470 | 8.34430 | 27716 ft | 404 kts | 264° |
| 2026-05-06 13:30 | 51.46241 | 8.30015 | 27574 ft | 390 kts | 264° |
| 2026-05-06 13:30 | 51.46015 | 8.25742 | 27260 ft | 381 kts | 264° |
| 2026-05-06 13:30 | 51.45789 | 8.21530 | 26817 ft | 377 kts | 264° |
| 2026-05-06 13:31 | 51.45566 | 8.17364 | 26364 ft | 373 kts | 264° |
| 2026-05-06 13:31 | 51.45343 | 8.13238 | 25852 ft | 371 kts | 264° |
| 2026-05-06 13:31 | 51.45117 | 8.09125 | 25363 ft | 369 kts | 264° |
| 2026-05-06 13:31 | 51.44891 | 8.05035 | 24906 ft | 367 kts | 264° |
| 2026-05-06 13:32 | 51.44667 | 8.00985 | 24463 ft | 364 kts | 264° |
| 2026-05-06 13:32 | 51.44449 | 7.96959 | 24038 ft | 361 kts | 264° |
| 2026-05-06 13:32 | 51.44234 | 7.93025 | 23604 ft | 358 kts | 264° |
| 2026-05-06 13:32 | 51.44014 | 7.89066 | 23132 ft | 356 kts | 264° |
| 2026-05-06 13:33 | 51.43793 | 7.85134 | 22631 ft | 353 kts | 264° |
| 2026-05-06 13:33 | 51.43574 | 7.81226 | 22199 ft | 350 kts | 264° |
| 2026-05-06 13:33 | 51.43357 | 7.77356 | 21769 ft | 347 kts | 264° |
| 2026-05-06 13:33 | 51.43140 | 7.73522 | 21352 ft | 344 kts | 264° |
| 2026-05-06 13:34 | 51.42923 | 7.69726 | 20943 ft | 341 kts | 263° |
| 2026-05-06 13:34 | 51.42704 | 7.65959 | 20538 ft | 338 kts | 264° |
| 2026-05-06 13:34 | 51.42481 | 7.62215 | 20119 ft | 336 kts | 264° |
| 2026-05-06 13:34 | 51.42259 | 7.58503 | 19729 ft | 334 kts | 264° |
| 2026-05-06 13:35 | 51.42039 | 7.54808 | 19332 ft | 332 kts | 264° |
| 2026-05-06 13:35 | 51.41986 | 7.51122 | 18928 ft | 330 kts | 270° |
| 2026-05-06 13:35 | 51.42016 | 7.47507 | 18537 ft | 328 kts | 270° |
| 2026-05-06 13:35 | 51.42041 | 7.43861 | 18166 ft | 327 kts | 269° |
| 2026-05-06 13:36 | 51.42064 | 7.40170 | 17263 ft | 338 kts | 269° |
| 2026-05-06 13:36 | 51.42085 | 7.36382 | 16636 ft | 341 kts | 269° |
| 2026-05-06 13:36 | 51.42102 | 7.32586 | 16164 ft | 339 kts | 269° |
| 2026-05-06 13:36 | 51.42116 | 7.28879 | 15742 ft | 337 kts | 269° |
| 2026-05-06 13:37 | 51.42131 | 7.25137 | 15337 ft | 335 kts | 269° |
| 2026-05-06 13:37 | 51.42128 | 7.21423 | 14938 ft | 332 kts | 265° |
| 2026-05-06 13:37 | 51.41671 | 7.17842 | 14500 ft | 329 kts | 249° |
| 2026-05-06 13:37 | 51.40562 | 7.14640 | 14038 ft | 329 kts | 232° |
| 2026-05-06 13:38 | 51.39038 | 7.12002 | 13459 ft | 324 kts | 226° |
| 2026-05-06 13:38 | 51.37475 | 7.09423 | 12620 ft | 322 kts | 226° |
| 2026-05-06 13:38 | 51.35920 | 7.06862 | 11814 ft | 319 kts | 226° |
| 2026-05-06 13:38 | 51.34388 | 7.04333 | 11264 ft | 309 kts | 226° |
| 2026-05-06 13:39 | 51.32943 | 7.01952 | 10972 ft | 292 kts | 226° |
| 2026-05-06 13:39 | 51.31550 | 6.99659 | 10510 ft | 283 kts | 226° |
| 2026-05-06 13:39 | 51.30192 | 6.97424 | 9975 ft | 278 kts | 226° |
| 2026-05-06 13:39 | 51.28850 | 6.95215 | 9340 ft | 275 kts | 226° |
| 2026-05-06 13:40 | 51.27522 | 6.93031 | 8891 ft | 273 kts | 226° |
| 2026-05-06 13:40 | 51.26192 | 6.90843 | 8675 ft | 276 kts | 226° |
| 2026-05-06 13:40 | 51.24863 | 6.88665 | 8477 ft | 270 kts | 226° |
| 2026-05-06 13:40 | 51.23591 | 6.86587 | 8347 ft | 260 kts | 226° |
| 2026-05-06 13:41 | 51.22358 | 6.84573 | 8216 ft | 249 kts | 226° |
| 2026-05-06 13:41 | 51.21167 | 6.82629 | 8071 ft | 241 kts | 226° |
| 2026-05-06 13:41 | 51.20076 | 6.80613 | 7964 ft | 242 kts | 233° |
| 2026-05-06 13:41 | 51.19065 | 6.78480 | 7772 ft | 240 kts | 233° |
| 2026-05-06 13:42 | 51.18056 | 6.76368 | 7581 ft | 240 kts | 233° |
| 2026-05-06 13:42 | 51.17049 | 6.74264 | 7389 ft | 238 kts | 233° |
| 2026-05-06 13:42 | 51.16046 | 6.72171 | 7189 ft | 238 kts | 233° |
| 2026-05-06 13:42 | 51.15038 | 6.70070 | 7000 ft | 238 kts | 233° |
| 2026-05-06 13:43 | 51.14037 | 6.67983 | 6687 ft | 236 kts | 233° |
| 2026-05-06 13:43 | 51.13048 | 6.65917 | 6390 ft | 234 kts | 233° |
| 2026-05-06 13:43 | 51.12058 | 6.63857 | 6025 ft | 234 kts | 235° |
| 2026-05-06 13:43 | 51.11070 | 6.61798 | 5572 ft | 239 kts | 235° |
| 2026-05-06 13:44 | 51.10061 | 6.59693 | 5208 ft | 240 kts | 236° |
| 2026-05-06 13:44 | 51.09048 | 6.57587 | 4883 ft | 239 kts | 235° |
| 2026-05-06 13:44 | 51.08041 | 6.55500 | 4571 ft | 237 kts | 235° |
| 2026-05-06 13:44 | 51.07038 | 6.53422 | 4242 ft | 236 kts | 235° |
| 2026-05-06 13:45 | 51.06041 | 6.51357 | 4027 ft | 234 kts | 235° |
| 2026-05-06 13:45 | 51.04055 | 6.47232 | 3996 ft | 236 kts | 235° |
| 2026-05-06 13:45 | 51.03093 | 6.45125 | 3992 ft | 234 kts | 244° |
| 2026-05-06 13:46 | 51.02592 | 6.42745 | 3999 ft | 230 kts | 266° |
| 2026-05-06 13:46 | 51.02691 | 6.40248 | 4002 ft | 226 kts | 288° |
| 2026-05-06 13:46 | 51.03351 | 6.38016 | 4001 ft | 224 kts | 308° |
| 2026-05-06 13:46 | 51.04472 | 6.36326 | 4000 ft | 223 kts | 329° |
| 2026-05-06 13:47 | 51.05891 | 6.35403 | 3999 ft | 221 kts | 349° |
| 2026-05-06 13:47 | 51.07419 | 6.35359 | 4005 ft | 221 kts | 9° |
| 2026-05-06 13:47 | 51.08862 | 6.36208 | 4003 ft | 224 kts | 30° |
| 2026-05-06 13:47 | 51.10022 | 6.37873 | 4002 ft | 227 kts | 50° |
| 2026-05-06 13:48 | 51.10987 | 6.39873 | 4003 ft | 228 kts | 50° |
| 2026-05-06 13:48 | 51.11953 | 6.41874 | 4006 ft | 228 kts | 50° |
| 2026-05-06 13:48 | 51.12922 | 6.43880 | 4004 ft | 227 kts | 50° |
| 2026-05-06 13:48 | 51.13861 | 6.45825 | 4015 ft | 219 kts | 50° |
| 2026-05-06 13:49 | 51.14774 | 6.47717 | 4005 ft | 218 kts | 50° |
| 2026-05-06 13:49 | 51.15699 | 6.49632 | 4011 ft | 218 kts | 50° |
| 2026-05-06 13:49 | 51.16616 | 6.51537 | 3882 ft | 216 kts | 50° |
| 2026-05-06 13:49 | 51.17525 | 6.53426 | 3630 ft | 213 kts | 50° |
| 2026-05-06 13:50 | 51.18422 | 6.55289 | 3337 ft | 211 kts | 50° |
| 2026-05-06 13:50 | 51.19296 | 6.57107 | 3059 ft | 202 kts | 50° |
| 2026-05-06 13:50 | 51.20131 | 6.58847 | 2816 ft | 192 kts | 50° |
| 2026-05-06 13:50 | 51.20916 | 6.60483 | 2562 ft | 181 kts | 50° |
| 2026-05-06 13:51 | 51.21672 | 6.62058 | 2295 ft | 175 kts | 50° |
| 2026-05-06 13:51 | 51.22381 | 6.63538 | 2069 ft | 163 kts | 49° |
| 2026-05-06 13:51 | 51.23040 | 6.64913 | 1847 ft | 150 kts | 49° |
| 2026-05-06 13:51 | 51.23641 | 6.66168 | 1657 ft | 137 kts | 49° |
| 2026-05-06 13:52 | 51.24212 | 6.67359 | 1465 ft | 134 kts | 49° |
| 2026-05-06 13:52 | 51.24778 | 6.68539 | 1292 ft | 134 kts | 49° |
| 2026-05-06 13:52 | 51.25344 | 6.69723 | 1103 ft | 135 kts | 49° |
| 2026-05-06 13:52 | 51.25917 | 6.70920 | 905 ft | 134 kts | 49° |
| 2026-05-06 13:53 | 51.26480 | 6.72098 | 715 ft | 135 kts | 49° |
| 2026-05-06 13:53 | 51.27044 | 6.73280 | 544 ft | 133 kts | 48° |
| 2026-05-06 13:53 | 51.27597 | 6.74442 | 388 ft | 133 kts | 49° |
| 2026-05-06 13:53 | 51.28154 | 6.75610 | 163 ft | 133 kts | 49° |
| 2026-05-06 13:54 | 51.28661 | 6.76660 | 131 ft | 97 kts | 51° |
| 2026-05-06 13:54 | 51.28967 | 6.77298 | 128 ft | 42 kts | 52° |
| 2026-05-06 13:54 | 51.29018 | 6.77504 | 130 ft | 17 kts | 102° |
| 2026-05-06 13:54 | 51.28962 | 6.77616 | 128 ft | 0 kts | 140° |
| 2026-05-06 13:55 | 51.28961 | 6.77616 | 128 ft | 0 kts | 140° |
| 2026-05-06 13:55 | 51.28946 | 6.77634 | 127 ft | 8 kts | 149° |
| 2026-05-06 13:55 | 51.28901 | 6.77625 | 125 ft | 6 kts | 212° |
| 2026-05-06 13:55 | 51.28849 | 6.77530 | 125 ft | 17 kts | 232° |
| 2026-05-06 13:56 | 51.28781 | 6.77388 | 128 ft | 15 kts | 233° |
| 2026-05-06 13:56 | 51.28722 | 6.77262 | 128 ft | 13 kts | 233° |
| 2026-05-06 13:56 | 51.28669 | 6.77149 | 126 ft | 12 kts | 233° |
| 2026-05-06 13:56 | 51.28621 | 6.77048 | 126 ft | 11 kts | 233° |
| 2026-05-06 13:57 | 51.28578 | 6.76957 | 127 ft | 10 kts | 233° |
| 2026-05-06 13:57 | 51.28536 | 6.76868 | 123 ft | 10 kts | 233° |
| 2026-05-06 13:57 | 51.28489 | 6.76788 | 123 ft | 10 kts | 212° |
| 2026-05-06 13:57 | 51.28427 | 6.76800 | 126 ft | 9 kts | 147° |
| 2026-05-06 13:58 | 51.28406 | 6.76821 | 123 ft | 0 kts | 146° |
| 2026-05-06 13:58 | 51.28386 | 6.76842 | 126 ft | 12 kts | 147° |
| 2026-05-06 13:58 | 51.28313 | 6.76862 | 129 ft | 10 kts | 187° |
| 2026-05-06 13:58 | 51.28255 | 6.76851 | 130 ft | 8 kts | 187° |
| 2026-05-06 13:59 | 51.28162 | 6.76834 | 130 ft | 13 kts | 187° |
| 2026-05-06 13:59 | 51.28106 | 6.76814 | 128 ft | 8 kts | 197° |
| 2026-05-06 13:59 | 51.28063 | 6.76791 | 128 ft | 0 kts | 201° |
| 2026-05-06 13:59 | 51.28055 | 6.76768 | 126 ft | 4 kts | 263° |
| 2026-05-06 14:00 | 51.28058 | 6.76722 | 130 ft | 4 kts | 276° |
| 2026-05-06 14:00 | 51.28059 | 6.76705 | 135 ft | 0 kts | 276° |